PWSweather.com
Personal Weather Stations
Station Observations
IHTIMAN1
Neighbourhood 1, IhtimanBG 2050

Neighbourhood 1IhtimanBG 2050

Lat: 42.436852, Lon: 23.817921

Elevation: 2066

Station Type: Oregon Scientific WMR968

http://ihtiman-meteo.com

High Low Average
Temperature 88.3°F31.3°C 58.6°F14.8°C 71.1°F21.7°C
Dew Point 65.7°F18.7°C 52.0°F11.1°C 59.9°F15.5°C
Winds 6.9 mph 11.1 kmh Calm Calm 2.0 mph S3.2 kmh S
Wind Gusts 10.4 mph16.7 kmh -- 2.0 mph3.2 kmh
Humidity 98% 33% 72%
Pressure 30.09 in1019.0 mb 30.00 in1015.9 mb -
Precipitation 0.00 in0.0 mm - -
Hour Temp Dew Point Humidity Winds Wind Gusts Pressure Precip Precip Rate Daily Precip Total
12:00 AM 65.5°F18.6°C 62.8°F17.1°C 91% Calm Calm -- 30.09 in1019.0 mb - 0.00 in0.0 mm 0.00 in0.0 mm
12:10 AM 65.5°F18.6°C 62.8°F17.1°C 91% Calm Calm -- 30.09 in1019.0 mb - 0.00 in0.0 mm 0.00 in0.0 mm
12:20 AM 65.5°F18.6°C 62.8°F17.1°C 91% 1.2 mph NE1.9 kmh NE 3.5 mph5.6 kmh 30.09 in1019.0 mb - 0.00 in0.0 mm 0.00 in0.0 mm
12:30 AM 65.5°F18.6°C 62.8°F17.1°C 91% Calm Calm -- 30.09 in1019.0 mb - 0.00 in0.0 mm 0.00 in0.0 mm
12:40 AM 65.5°F18.6°C 62.8°F17.1°C 91% 1.2 mph NNE1.9 kmh NNE -- 30.09 in1019.0 mb - 0.00 in0.0 mm 0.00 in0.0 mm
12:50 AM 65.5°F18.6°C 62.8°F17.1°C 91% Calm Calm -- 30.09 in1019.0 mb - 0.00 in0.0 mm 0.00 in0.0 mm
01:00 AM 65.5°F18.6°C 62.8°F17.1°C 91% Calm Calm -- 30.09 in1019.0 mb - 0.00 in0.0 mm 0.00 in0.0 mm
01:10 AM 65.5°F18.6°C 62.8°F17.1°C 91% Calm Calm -- 30.09 in1019.0 mb - 0.00 in0.0 mm 0.00 in0.0 mm
01:20 AM 63.5°F17.5°C 61.7°F16.5°C 94% Calm Calm -- 30.09 in1019.0 mb - 0.00 in0.0 mm 0.00 in0.0 mm
01:30 AM 63.1°F17.3°C 61.4°F16.3°C 94% Calm Calm -- 30.09 in1019.0 mb - 0.00 in0.0 mm 0.00 in0.0 mm
01:40 AM 63.0°F17.2°C 61.2°F16.2°C 94% Calm Calm -- 30.09 in1019.0 mb - 0.00 in0.0 mm 0.00 in0.0 mm
01:50 AM 62.8°F17.1°C 61.3°F16.3°C 95% Calm Calm 3.5 mph5.6 kmh 30.09 in1019.0 mb - 0.00 in0.0 mm 0.00 in0.0 mm
02:00 AM 62.3°F16.8°C 60.8°F16.0°C 95% Calm Calm -- 30.09 in1019.0 mb - 0.00 in0.0 mm 0.00 in0.0 mm
02:10 AM 62.1°F16.7°C 60.6°F15.9°C 95% Calm Calm -- 30.09 in1019.0 mb - 0.00 in0.0 mm 0.00 in0.0 mm
02:20 AM 61.9°F16.6°C 60.7°F15.9°C 96% Calm Calm -- 30.09 in1019.0 mb - 0.00 in0.0 mm 0.00 in0.0 mm
02:30 AM 61.7°F16.5°C 60.5°F15.8°C 96% Calm Calm -- 30.06 in1017.9 mb - 0.00 in0.0 mm 0.00 in0.0 mm
02:40 AM 61.7°F16.5°C 60.5°F15.8°C 96% Calm Calm -- 30.06 in1017.9 mb - 0.00 in0.0 mm 0.00 in0.0 mm
02:50 AM 61.4°F16.3°C 60.2°F15.7°C 96% Calm Calm -- 30.06 in1017.9 mb - 0.00 in0.0 mm 0.00 in0.0 mm
03:00 AM 61.3°F16.3°C 60.5°F15.8°C 97% Calm Calm -- 30.06 in1017.9 mb - 0.00 in0.0 mm 0.00 in0.0 mm
03:10 AM 61.2°F16.2°C 60.3°F15.7°C 97% Calm Calm -- 30.06 in1017.9 mb - 0.00 in0.0 mm 0.00 in0.0 mm
03:20 AM 61.0°F16.1°C 60.1°F15.6°C 97% Calm Calm -- 30.06 in1017.9 mb - 0.00 in0.0 mm 0.00 in0.0 mm
03:30 AM 60.5°F15.8°C 59.9°F15.5°C 98% Calm Calm -- 30.06 in1017.9 mb - 0.00 in0.0 mm 0.00 in0.0 mm
03:40 AM 60.3°F15.7°C 59.7°F15.4°C 98% Calm Calm -- 30.06 in1017.9 mb - 0.00 in0.0 mm 0.00 in0.0 mm
03:50 AM 60.3°F15.7°C 59.7°F15.4°C 98% Calm Calm -- 30.06 in1017.9 mb - 0.00 in0.0 mm 0.00 in0.0 mm
04:00 AM 60.1°F15.6°C 59.5°F15.3°C 98% Calm Calm -- 30.06 in1017.9 mb - 0.00 in0.0 mm 0.00 in0.0 mm
04:10 AM 60.1°F15.6°C 59.5°F15.3°C 98% Calm Calm -- 30.06 in1017.9 mb - 0.00 in0.0 mm 0.00 in0.0 mm
04:20 AM 60.1°F15.6°C 59.5°F15.3°C 98% Calm Calm -- 30.06 in1017.9 mb - 0.00 in0.0 mm 0.00 in0.0 mm
04:30 AM 59.9°F15.5°C 59.3°F15.2°C 98% Calm Calm -- 30.06 in1017.9 mb - 0.00 in0.0 mm 0.00 in0.0 mm
04:40 AM 59.9°F15.5°C 59.3°F15.2°C 98% Calm Calm -- 30.06 in1017.9 mb - 0.00 in0.0 mm 0.00 in0.0 mm
04:50 AM 59.7°F15.4°C 59.2°F15.1°C 98% Calm Calm -- 30.06 in1017.9 mb - 0.00 in0.0 mm 0.00 in0.0 mm
05:00 AM 59.1°F15.1°C 58.5°F14.7°C 98% Calm Calm -- 30.06 in1017.9 mb - 0.00 in0.0 mm 0.00 in0.0 mm
05:10 AM 58.7°F14.8°C 58.1°F14.5°C 98% Calm Calm -- 30.06 in1017.9 mb - 0.00 in0.0 mm 0.00 in0.0 mm
05:20 AM 58.6°F14.8°C 58.1°F14.5°C 98% Calm Calm -- 30.06 in1017.9 mb - 0.00 in0.0 mm 0.00 in0.0 mm
05:30 AM 58.6°F14.8°C 58.1°F14.5°C 98% Calm Calm -- 30.06 in1017.9 mb - 0.00 in0.0 mm 0.00 in0.0 mm
05:40 AM 59.0°F15.0°C 58.4°F14.7°C 98% Calm Calm -- 30.06 in1017.9 mb - 0.00 in0.0 mm 0.00 in0.0 mm
05:50 AM 59.6°F15.3°C 59.0°F15.0°C 98% Calm Calm 3.5 mph5.6 kmh 30.06 in1017.9 mb - 0.00 in0.0 mm 0.00 in0.0 mm
06:00 AM 59.4°F15.2°C 58.8°F14.9°C 98% 3.5 mph SSE5.6 kmh SSE 5.8 mph9.3 kmh 30.06 in1017.9 mb - 0.00 in0.0 mm 0.00 in0.0 mm
06:10 AM 59.4°F15.2°C 58.8°F14.9°C 98% Calm Calm 3.5 mph5.6 kmh 30.06 in1017.9 mb - 0.00 in0.0 mm 0.00 in0.0 mm
06:20 AM 59.2°F15.1°C 58.6°F14.8°C 98% Calm Calm -- 30.06 in1017.9 mb - 0.00 in0.0 mm 0.00 in0.0 mm
06:30 AM 59.6°F15.3°C 59.0°F15.0°C 98% 1.2 mph NE1.9 kmh NE 3.5 mph5.6 kmh 30.06 in1017.9 mb - 0.00 in0.0 mm 0.00 in0.0 mm
06:40 AM 60.7°F15.9°C 60.1°F15.6°C 98% Calm Calm -- 30.06 in1017.9 mb - 0.00 in0.0 mm 0.00 in0.0 mm
06:50 AM 61.7°F16.5°C 61.1°F16.2°C 98% Calm Calm -- 30.06 in1017.9 mb - 0.00 in0.0 mm 0.00 in0.0 mm
07:00 AM 62.6°F17.0°C 62.1°F16.7°C 98% Calm Calm -- 30.06 in1017.9 mb - 0.00 in0.0 mm 0.00 in0.0 mm
07:10 AM 64.2°F17.9°C 63.6°F17.6°C 98% 1.2 mph WSW1.9 kmh WSW 3.5 mph5.6 kmh 30.06 in1017.9 mb - 0.00 in0.0 mm 0.00 in0.0 mm
07:20 AM 66.2°F19.0°C 65.6°F18.7°C 98% 3.5 mph W5.6 kmh W 3.5 mph5.6 kmh 30.06 in1017.9 mb - 0.00 in0.0 mm 0.00 in0.0 mm
07:30 AM 67.3°F19.6°C 65.5°F18.6°C 94% Calm Calm -- 30.06 in1017.9 mb - 0.00 in0.0 mm 0.00 in0.0 mm
07:40 AM 68.7°F20.4°C 65.7°F18.7°C 90% Calm Calm -- 30.06 in1017.9 mb - 0.00 in0.0 mm 0.00 in0.0 mm
07:50 AM 69.1°F20.6°C 64.4°F18.0°C 85% Calm Calm -- 30.06 in1017.9 mb - 0.00 in0.0 mm 0.00 in0.0 mm
08:00 AM 70.2°F21.2°C 64.8°F18.2°C 83% Calm Calm -- 30.06 in1017.9 mb - 0.00 in0.0 mm 0.00 in0.0 mm
08:10 AM 71.4°F21.9°C 64.2°F17.9°C 78% Calm Calm -- 30.06 in1017.9 mb - 0.00 in0.0 mm 0.00 in0.0 mm
08:20 AM 73.5°F23.1°C 64.7°F18.2°C 74% 1.2 mph NNW1.9 kmh NNW 2.3 mph3.7 kmh 30.06 in1017.9 mb - 0.00 in0.0 mm 0.00 in0.0 mm
08:30 AM 74.7°F23.7°C 63.8°F17.7°C 69% Calm Calm -- 30.06 in1017.9 mb - 0.00 in0.0 mm 0.00 in0.0 mm
08:40 AM 75.6°F24.2°C 64.3°F17.9°C 68% 1.2 mph NNW1.9 kmh NNW 2.3 mph3.7 kmh 30.06 in1017.9 mb - 0.00 in0.0 mm 0.00 in0.0 mm
08:50 AM 75.4°F24.1°C 64.1°F17.8°C 68% 3.5 mph WSW5.6 kmh WSW 3.5 mph5.6 kmh 30.06 in1017.9 mb - 0.00 in0.0 mm 0.00 in0.0 mm
09:00 AM 76.6°F24.8°C 65.3°F18.5°C 68% Calm Calm -- 30.06 in1017.9 mb - 0.00 in0.0 mm 0.00 in0.0 mm
09:10 AM 77.4°F25.2°C 65.1°F18.4°C 66% 3.5 mph N5.6 kmh N 3.5 mph5.6 kmh 30.06 in1017.9 mb - 0.00 in0.0 mm 0.00 in0.0 mm
09:20 AM 77.5°F25.3°C 65.3°F18.5°C 66% 5.8 mph NNW9.3 kmh NNW 8.1 mph13.0 kmh 30.06 in1017.9 mb - 0.00 in0.0 mm 0.00 in0.0 mm
09:30 AM 77.5°F25.3°C 65.3°F18.5°C 66% 3.5 mph SW5.6 kmh SW 5.8 mph9.3 kmh 30.06 in1017.9 mb - 0.00 in0.0 mm 0.00 in0.0 mm
09:40 AM 77.5°F25.3°C 65.3°F18.5°C 66% 3.5 mph WSW5.6 kmh WSW 4.6 mph7.4 kmh 30.06 in1017.9 mb - 0.00 in0.0 mm 0.00 in0.0 mm
09:50 AM 77.5°F25.3°C 65.3°F18.5°C 66% 3.5 mph NNW5.6 kmh NNW 5.8 mph9.3 kmh 30.06 in1017.9 mb - 0.00 in0.0 mm 0.00 in0.0 mm
10:00 AM 77.5°F25.3°C 65.3°F18.5°C 66% 4.6 mph NW7.4 kmh NW 8.1 mph13.0 kmh 30.06 in1017.9 mb - 0.00 in0.0 mm 0.00 in0.0 mm
10:10 AM 81.7°F27.6°C 60.1°F15.6°C 48% 1.2 mph ENE1.9 kmh ENE 2.3 mph3.7 kmh 30.06 in1017.9 mb - 0.00 in0.0 mm 0.00 in0.0 mm
10:20 AM 82.4°F28.0°C 58.9°F14.9°C 45% 2.3 mph NW3.7 kmh NW 3.5 mph5.6 kmh 30.06 in1017.9 mb - 0.00 in0.0 mm 0.00 in0.0 mm
10:30 AM 83.3°F28.5°C 57.8°F14.3°C 42% 4.6 mph NE7.4 kmh NE 8.1 mph13.0 kmh 30.06 in1017.9 mb - 0.00 in0.0 mm 0.00 in0.0 mm
10:40 AM 84.0°F28.9°C 57.8°F14.3°C 41% 1.2 mph NNE1.9 kmh NNE 3.5 mph5.6 kmh 30.06 in1017.9 mb - 0.00 in0.0 mm 0.00 in0.0 mm
10:50 AM 84.2°F29.0°C 56.6°F13.7°C 39% 2.3 mph N3.7 kmh N 4.6 mph7.4 kmh 30.06 in1017.9 mb - 0.00 in0.0 mm 0.00 in0.0 mm
11:00 AM 83.8°F28.8°C 56.2°F13.4°C 39% 3.5 mph NE5.6 kmh NE 5.8 mph9.3 kmh 30.06 in1017.9 mb - 0.00 in0.0 mm 0.00 in0.0 mm
11:10 AM 83.9°F28.8°C 57.0°F13.9°C 40% 2.3 mph NE3.7 kmh NE 3.5 mph5.6 kmh 30.06 in1017.9 mb - 0.00 in0.0 mm 0.00 in0.0 mm
11:20 AM 84.4°F29.1°C 56.7°F13.7°C 39% 4.6 mph E7.4 kmh E 10.4 mph16.7 kmh 30.03 in1016.9 mb - 0.00 in0.0 mm 0.00 in0.0 mm
11:30 AM 84.9°F29.4°C 57.2°F14.0°C 39% 3.5 mph E5.6 kmh E 5.8 mph9.3 kmh 30.06 in1017.9 mb - 0.00 in0.0 mm 0.00 in0.0 mm
11:40 AM 83.8°F28.8°C 56.2°F13.4°C 39% 3.5 mph ENE5.6 kmh ENE 3.5 mph5.6 kmh 30.06 in1017.9 mb - 0.00 in0.0 mm 0.00 in0.0 mm
11:50 AM 83.3°F28.5°C 55.8°F13.2°C 39% 4.6 mph E7.4 kmh E 5.8 mph9.3 kmh 30.06 in1017.9 mb - 0.00 in0.0 mm 0.00 in0.0 mm
12:00 PM 83.3°F28.5°C 56.5°F13.6°C 40% 1.2 mph SE1.9 kmh SE 4.6 mph7.4 kmh 30.06 in1017.9 mb - 0.00 in0.0 mm 0.00 in0.0 mm
12:10 PM 80.8°F27.1°C 54.9°F12.7°C 41% 3.5 mph SE5.6 kmh SE 5.8 mph9.3 kmh 30.06 in1017.9 mb - 0.00 in0.0 mm 0.00 in0.0 mm
12:20 PM 83.3°F28.5°C 58.5°F14.7°C 43% 2.3 mph SE3.7 kmh SE 3.5 mph5.6 kmh 30.06 in1017.9 mb - 0.00 in0.0 mm 0.00 in0.0 mm
12:30 PM 81.1°F27.3°C 56.5°F13.6°C 43% 4.6 mph SE7.4 kmh SE 8.1 mph13.0 kmh 30.06 in1017.9 mb - 0.00 in0.0 mm 0.00 in0.0 mm
12:40 PM 81.0°F27.2°C 55.7°F13.2°C 42% 3.5 mph ESE5.6 kmh ESE 3.5 mph5.6 kmh 30.06 in1017.9 mb - 0.00 in0.0 mm 0.00 in0.0 mm
12:50 PM 84.5°F29.2°C 58.2°F14.6°C 41% 2.3 mph N3.7 kmh N 4.6 mph7.4 kmh 30.06 in1017.9 mb - 0.00 in0.0 mm 0.00 in0.0 mm
01:00 PM 82.3°F27.9°C 56.2°F13.4°C 41% 3.5 mph NE5.6 kmh NE 3.5 mph5.6 kmh 30.06 in1017.9 mb - 0.00 in0.0 mm 0.00 in0.0 mm
01:10 PM 80.6°F27.0°C 56.7°F13.7°C 44% 3.5 mph NE5.6 kmh NE 5.8 mph9.3 kmh 30.06 in1017.9 mb - 0.00 in0.0 mm 0.00 in0.0 mm
01:20 PM 81.5°F27.5°C 59.3°F15.2°C 47% 2.3 mph N3.7 kmh N 3.5 mph5.6 kmh 30.03 in1016.9 mb - 0.00 in0.0 mm 0.00 in0.0 mm
01:30 PM 84.6°F29.2°C 60.3°F15.7°C 44% 5.8 mph SSW9.3 kmh SSW 9.2 mph14.8 kmh 30.03 in1016.9 mb - 0.00 in0.0 mm 0.00 in0.0 mm
01:40 PM 85.4°F29.7°C 59.1°F15.1°C 41% 1.2 mph SW1.9 kmh SW 3.5 mph5.6 kmh 30.03 in1016.9 mb - 0.00 in0.0 mm 0.00 in0.0 mm
01:50 PM 86.7°F30.4°C 58.8°F14.9°C 39% 4.6 mph SSW7.4 kmh SSW 5.8 mph9.3 kmh 30.03 in1016.9 mb - 0.00 in0.0 mm 0.00 in0.0 mm
02:00 PM 86.2°F30.1°C 58.4°F14.7°C 39% 1.2 mph S1.9 kmh S 3.5 mph5.6 kmh 30.03 in1016.9 mb - 0.00 in0.0 mm 0.00 in0.0 mm
02:10 PM 87.1°F30.6°C 56.1°F13.4°C 35% 3.5 mph S5.6 kmh S 3.5 mph5.6 kmh 30.03 in1016.9 mb - 0.00 in0.0 mm 0.00 in0.0 mm
02:20 PM 88.3°F31.3°C 55.6°F13.1°C 33% 5.8 mph SW9.3 kmh SW 8.1 mph13.0 kmh 30.03 in1016.9 mb - 0.00 in0.0 mm 0.00 in0.0 mm
02:30 PM 85.5°F29.7°C 57.0°F13.9°C 38% 4.6 mph S7.4 kmh S 5.8 mph9.3 kmh 30.00 in1015.9 mb - 0.00 in0.0 mm 0.00 in0.0 mm
02:40 PM 87.6°F30.9°C 58.9°F14.9°C 38% 4.6 mph S7.4 kmh S 5.8 mph9.3 kmh 30.00 in1015.9 mb - 0.00 in0.0 mm 0.00 in0.0 mm
02:50 PM 86.2°F30.1°C 53.7°F12.1°C 33% Calm Calm -- 30.03 in1016.9 mb - 0.00 in0.0 mm 0.00 in0.0 mm
03:00 PM 83.1°F28.4°C 54.9°F12.7°C 38% 3.5 mph S5.6 kmh S 4.6 mph7.4 kmh 30.03 in1016.9 mb - 0.00 in0.0 mm 0.00 in0.0 mm
03:10 PM 82.8°F28.2°C 53.8°F12.1°C 37% 2.3 mph NNE3.7 kmh NNE 4.6 mph7.4 kmh 30.03 in1016.9 mb - 0.00 in0.0 mm 0.00 in0.0 mm
03:20 PM 81.7°F27.6°C 54.3°F12.4°C 39% 2.3 mph NE3.7 kmh NE 3.5 mph5.6 kmh 30.03 in1016.9 mb - 0.00 in0.0 mm 0.00 in0.0 mm
03:30 PM 80.4°F26.9°C 53.9°F12.2°C 40% 2.3 mph NE3.7 kmh NE 3.5 mph5.6 kmh 30.03 in1016.9 mb - 0.00 in0.0 mm 0.00 in0.0 mm
03:40 PM 81.0°F27.2°C 53.7°F12.1°C 39% Calm Calm -- 30.03 in1016.9 mb - 0.00 in0.0 mm 0.00 in0.0 mm
03:50 PM 79.9°F26.6°C 52.0°F11.1°C 38% Calm Calm -- 30.03 in1016.9 mb - 0.00 in0.0 mm 0.00 in0.0 mm
04:00 PM 79.2°F26.2°C 52.1°F11.2°C 39% Calm Calm 3.5 mph5.6 kmh 30.00 in1015.9 mb - 0.00 in0.0 mm 0.00 in0.0 mm
04:10 PM 79.5°F26.4°C 53.1°F11.7°C 40% Calm Calm -- 30.00 in1015.9 mb - 0.00 in0.0 mm 0.00 in0.0 mm
04:20 PM 78.2°F25.7°C 58.1°F14.5°C 50% 3.5 mph WNW5.6 kmh WNW 4.6 mph7.4 kmh 30.00 in1015.9 mb - 0.00 in0.0 mm 0.00 in0.0 mm
04:30 PM 78.3°F25.7°C 63.7°F17.6°C 61% 2.3 mph NW3.7 kmh NW 8.1 mph13.0 kmh 30.00 in1015.9 mb - 0.00 in0.0 mm 0.00 in0.0 mm
04:40 PM 79.5°F26.4°C 59.8°F15.4°C 51% 3.5 mph N5.6 kmh N 4.6 mph7.4 kmh 30.00 in1015.9 mb - 0.00 in0.0 mm 0.00 in0.0 mm
04:50 PM 76.2°F24.6°C 58.9°F14.9°C 55% 4.6 mph NW7.4 kmh NW 5.8 mph9.3 kmh 30.00 in1015.9 mb - 0.00 in0.0 mm 0.00 in0.0 mm
05:00 PM 74.8°F23.8°C 56.5°F13.6°C 53% 6.9 mph NW11.1 kmh NW 8.1 mph13.0 kmh 30.00 in1015.9 mb - 0.00 in0.0 mm 0.00 in0.0 mm
05:10 PM 74.1°F23.4°C 55.9°F13.3°C 53% 5.8 mph NW9.3 kmh NW 8.1 mph13.0 kmh 30.00 in1015.9 mb - 0.00 in0.0 mm 0.00 in0.0 mm
05:20 PM 72.7°F22.6°C 57.1°F13.9°C 58% 4.6 mph NNW7.4 kmh NNW 5.8 mph9.3 kmh 30.00 in1015.9 mb - 0.00 in0.0 mm 0.00 in0.0 mm
05:30 PM 72.1°F22.3°C 57.9°F14.4°C 61% 4.6 mph N7.4 kmh N 8.1 mph13.0 kmh 30.00 in1015.9 mb - 0.00 in0.0 mm 0.00 in0.0 mm
05:40 PM 72.2°F22.3°C 58.5°F14.7°C 62% 5.8 mph NW9.3 kmh NW 5.8 mph9.3 kmh 30.00 in1015.9 mb - 0.00 in0.0 mm 0.00 in0.0 mm
05:50 PM 71.8°F22.1°C 59.4°F15.2°C 65% 4.6 mph NW7.4 kmh NW 5.8 mph9.3 kmh 30.00 in1015.9 mb - 0.00 in0.0 mm 0.00 in0.0 mm
06:00 PM 71.3°F21.8°C 59.8°F15.4°C 67% 3.5 mph NNW5.6 kmh NNW 3.5 mph5.6 kmh 30.00 in1015.9 mb - 0.00 in0.0 mm 0.00 in0.0 mm
06:10 PM 71.2°F21.8°C 59.7°F15.4°C 67% Calm Calm -- 30.00 in1015.9 mb - 0.00 in0.0 mm 0.00 in0.0 mm
06:20 PM 71.4°F21.9°C 59.5°F15.3°C 66% Calm Calm -- 30.00 in1015.9 mb - 0.00 in0.0 mm 0.00 in0.0 mm
06:30 PM 72.2°F22.3°C 58.9°F14.9°C 63% Calm Calm -- 30.00 in1015.9 mb - 0.00 in0.0 mm 0.00 in0.0 mm
06:40 PM 72.3°F22.4°C 59.9°F15.5°C 65% Calm Calm 2.3 mph3.7 kmh 30.00 in1015.9 mb - 0.00 in0.0 mm 0.00 in0.0 mm
06:50 PM 72.3°F22.4°C 59.9°F15.5°C 65% Calm Calm -- 30.00 in1015.9 mb - 0.00 in0.0 mm 0.00 in0.0 mm
07:00 PM 72.1°F22.3°C 60.2°F15.7°C 66% 2.3 mph WNW3.7 kmh WNW 3.5 mph5.6 kmh 30.00 in1015.9 mb - 0.00 in0.0 mm 0.00 in0.0 mm
07:10 PM 72.1°F22.3°C 60.2°F15.7°C 66% Calm Calm 3.5 mph5.6 kmh 30.00 in1015.9 mb - 0.00 in0.0 mm 0.00 in0.0 mm
07:20 PM 72.1°F22.3°C 59.7°F15.4°C 65% Calm Calm -- 30.00 in1015.9 mb - 0.00 in0.0 mm 0.00 in0.0 mm
07:30 PM 72.1°F22.3°C 59.7°F15.4°C 65% Calm Calm -- 30.00 in1015.9 mb - 0.00 in0.0 mm 0.00 in0.0 mm
07:40 PM 72.1°F22.3°C 59.7°F15.4°C 65% 2.3 mph NE3.7 kmh NE 3.5 mph5.6 kmh 30.00 in1015.9 mb - 0.00 in0.0 mm 0.00 in0.0 mm
07:50 PM 72.1°F22.3°C 59.7°F15.4°C 65% Calm Calm -- 30.00 in1015.9 mb - 0.00 in0.0 mm 0.00 in0.0 mm
08:00 PM 72.1°F22.3°C 59.7°F15.4°C 65% Calm Calm -- 30.00 in1015.9 mb - 0.00 in0.0 mm 0.00 in0.0 mm
08:10 PM 72.1°F22.3°C 59.7°F15.4°C 65% Calm Calm -- 30.00 in1015.9 mb - 0.00 in0.0 mm 0.00 in0.0 mm
08:20 PM 72.1°F22.3°C 59.7°F15.4°C 65% Calm Calm -- 30.00 in1015.9 mb - 0.00 in0.0 mm 0.00 in0.0 mm
08:30 PM 69.0°F20.6°C 60.3°F15.7°C 74% Calm Calm -- 30.00 in1015.9 mb - 0.00 in0.0 mm 0.00 in0.0 mm
08:40 PM 68.5°F20.3°C 61.4°F16.3°C 78% Calm Calm -- 30.00 in1015.9 mb - 0.00 in0.0 mm 0.00 in0.0 mm
08:50 PM 68.0°F20.0°C 62.3°F16.8°C 82% Calm Calm -- 30.00 in1015.9 mb - 0.00 in0.0 mm 0.00 in0.0 mm
09:00 PM 67.5°F19.7°C 63.1°F17.3°C 86% 3.5 mph SE5.6 kmh SE 3.5 mph5.6 kmh 30.00 in1015.9 mb - 0.00 in0.0 mm 0.00 in0.0 mm
09:10 PM 66.9°F19.4°C 63.2°F17.3°C 88% 2.3 mph SE3.7 kmh SE 3.5 mph5.6 kmh 30.00 in1015.9 mb - 0.00 in0.0 mm 0.00 in0.0 mm
09:20 PM 66.2°F19.0°C 62.5°F16.9°C 88% 1.2 mph WNW1.9 kmh WNW 3.5 mph5.6 kmh 30.03 in1016.9 mb - 0.00 in0.0 mm 0.00 in0.0 mm
09:30 PM 65.5°F18.6°C 62.1°F16.7°C 89% Calm Calm -- 30.03 in1016.9 mb - 0.00 in0.0 mm 0.00 in0.0 mm
09:40 PM 64.9°F18.3°C 61.9°F16.6°C 90% Calm Calm -- 30.03 in1016.9 mb - 0.00 in0.0 mm 0.00 in0.0 mm
09:50 PM 64.7°F18.2°C 62.0°F16.7°C 91% Calm Calm -- 30.03 in1016.9 mb - 0.00 in0.0 mm 0.00 in0.0 mm
10:00 PM 64.6°F18.1°C 62.2°F16.8°C 92% Calm Calm -- 30.03 in1016.9 mb - 0.00 in0.0 mm 0.00 in0.0 mm
10:10 PM 64.4°F18.0°C 62.0°F16.7°C 92% Calm Calm -- 30.03 in1016.9 mb - 0.00 in0.0 mm 0.00 in0.0 mm
10:20 PM 64.2°F17.9°C 62.1°F16.7°C 93% Calm Calm -- 30.03 in1016.9 mb - 0.00 in0.0 mm 0.00 in0.0 mm
10:30 PM 63.7°F17.6°C 61.3°F16.3°C 92% 2.3 mph SSE3.7 kmh SSE 3.5 mph5.6 kmh 30.03 in1016.9 mb - 0.00 in0.0 mm 0.00 in0.0 mm
10:40 PM 63.3°F17.4°C 61.3°F16.3°C 93% 1.2 mph SE1.9 kmh SE 3.5 mph5.6 kmh 30.03 in1016.9 mb - 0.00 in0.0 mm 0.00 in0.0 mm
10:50 PM 63.0°F17.2°C 60.9°F16.1°C 93% Calm Calm 3.5 mph5.6 kmh 30.03 in1016.9 mb - 0.00 in0.0 mm 0.00 in0.0 mm
11:00 PM 62.6°F17.0°C 60.5°F15.8°C 93% 1.2 mph SSE1.9 kmh SSE 3.5 mph5.6 kmh 30.03 in1016.9 mb - 0.00 in0.0 mm 0.00 in0.0 mm
11:10 PM 62.4°F16.9°C 60.7°F15.9°C 94% Calm Calm -- 30.03 in1016.9 mb - 0.00 in0.0 mm 0.00 in0.0 mm
11:20 PM 62.2°F16.8°C 60.8°F16.0°C 95% 1.2 mph S1.9 kmh S -- 30.03 in1016.9 mb - 0.00 in0.0 mm 0.00 in0.0 mm
11:30 PM 62.2°F16.8°C 60.7°F15.9°C 95% 2.3 mph NW3.7 kmh NW 3.5 mph5.6 kmh 30.03 in1016.9 mb - 0.00 in0.0 mm 0.00 in0.0 mm
11:40 PM 61.7°F16.5°C 60.3°F15.7°C 95% 1.2 mph NW1.9 kmh NW -- 30.03 in1016.9 mb - 0.00 in0.0 mm 0.00 in0.0 mm
11:50 PM 61.5°F16.4°C 60.4°F15.8°C 96% 2.3 mph N3.7 kmh N 3.5 mph5.6 kmh 30.03 in1016.9 mb - 0.00 in0.0 mm 0.00 in0.0 mm